Time;durP1;ratioP1;P1;durP2;ratioP2;P2;SDS_P1;SDS_P2;PMS_P1;PMS_P2;Temp;Humidity;BMP_temperature;BMP_pressure;BME280_temperature;BME280_humidity;BME280_pressure;Samples;Min_cycle;Max_cycle;Signal;HPM_P1;HPM_P2
2022/07/22 00:01:03;;;;;;;20.85;4.78;;;15.90;99.90;;;;;;5059424;28;20383;-75
2022/07/22 00:03:29;;;;;;;24.13;5.20;;;16.00;99.90;;;;;;5022431;28;21219;-73
2022/07/22 00:05:54;;;;;;;24.10;5.70;;;15.90;99.90;;;;;;5034666;28;20063;-75
2022/07/22 00:08:20;;;;;;;15.43;4.20;;;16.00;99.90;;;;;;5040969;28;20029;-77
2022/07/22 00:10:46;;;;;;;15.15;4.28;;;16.00;99.90;;;;;;5069959;28;20053;-76
2022/07/22 00:13:12;;;;;;;17.10;4.15;;;16.00;99.90;;;;;;5020980;28;20416;-75
2022/07/22 00:15:38;;;;;;;25.90;4.15;;;16.00;99.90;;;;;;5032647;28;20055;-74
2022/07/22 00:18:03;;;;;;;14.35;3.47;;;16.00;99.90;;;;;;5015709;28;20056;-77
2022/07/22 00:20:29;;;;;;;16.38;3.60;;;16.00;99.90;;;;;;5050791;28;20056;-79
2022/07/22 00:22:55;;;;;;;19.42;3.05;;;16.00;99.90;;;;;;5066465;28;21584;-76
2022/07/22 00:25:21;;;;;;;18.10;3.65;;;15.90;99.90;;;;;;5048884;28;20033;-75
2022/07/22 00:27:46;;;;;;;16.27;3.22;;;15.90;99.90;;;;;;5031421;28;20124;-76
2022/07/22 00:30:12;;;;;;;7.75;2.20;;;16.00;99.90;;;;;;5016874;28;20036;-76
2022/07/22 00:32:38;;;;;;;13.35;2.08;;;16.00;99.90;;;;;;5031604;28;20056;-75
2022/07/22 00:35:04;;;;;;;12.07;2.55;;;15.90;99.90;;;;;;5081013;28;20052;-74
2022/07/22 00:37:30;;;;;;;10.38;2.17;;;16.00;99.90;;;;;;5054633;28;20496;-77
2022/07/22 00:39:56;;;;;;;13.18;2.50;;;16.00;99.90;;;;;;5072054;28;20057;-77
2022/07/22 00:42:21;;;;;;;7.47;2.00;;;16.00;99.90;;;;;;5063120;28;20076;-77
2022/07/22 00:44:47;;;;;;;13.95;2.47;;;16.00;99.90;;;;;;5053416;28;20032;-76
2022/07/22 00:47:13;;;;;;;13.82;2.65;;;16.00;99.90;;;;;;5064735;28;20033;-76
2022/07/22 00:49:39;;;;;;;10.68;2.30;;;16.00;99.90;;;;;;5067543;28;20072;-76
2022/07/22 00:52:05;;;;;;;12.75;2.60;;;16.00;99.90;;;;;;5069093;28;20211;-75
2022/07/22 00:54:32;;;;;;;10.40;2.50;;;16.00;99.90;;;;;;5051562;28;20095;-78
2022/07/22 00:56:58;;;;;;;12.80;2.33;;;16.00;99.90;;;;;;5072068;28;20037;-75
2022/07/22 00:59:24;;;;;;;15.75;2.20;;;15.90;99.90;;;;;;5067174;28;20053;-75
2022/07/22 01:01:51;;;;;;;23.38;2.63;;;16.10;99.90;;;;;;5031916;28;20061;-74
2022/07/22 01:04:17;;;;;;;11.10;2.45;;;16.00;99.90;;;;;;5017878;28;20125;-72
2022/07/22 01:06:44;;;;;;;13.43;2.70;;;16.00;99.90;;;;;;5066251;28;20045;-76
2022/07/22 01:09:10;;;;;;;14.18;2.70;;;16.00;99.90;;;;;;5071180;28;20048;-76
2022/07/22 01:11:36;;;;;;;14.13;2.55;;;16.00;99.90;;;;;;5045748;28;20834;-75
2022/07/22 01:14:02;;;;;;;14.98;2.30;;;16.00;99.90;;;;;;5067835;28;20033;-78
2022/07/22 01:16:28;;;;;;;12.85;2.92;;;15.90;99.90;;;;;;5038152;28;20037;-77
2022/07/22 01:18:54;;;;;;;13.82;2.30;;;16.00;99.90;;;;;;5051426;28;20041;-78
2022/07/22 01:21:20;;;;;;;16.45;2.50;;;16.00;99.90;;;;;;5063141;28;20029;-75
2022/07/22 01:23:46;;;;;;;11.45;2.20;;;16.00;99.90;;;;;;5075281;28;20140;-74
2022/07/22 01:26:12;;;;;;;10.18;2.03;;;15.90;99.90;;;;;;5079135;28;20140;-76
2022/07/22 01:28:38;;;;;;;9.43;2.17;;;15.90;99.90;;;;;;5042713;28;20033;-76
2022/07/22 01:31:04;;;;;;;11.75;1.95;;;15.90;99.90;;;;;;5021740;28;20147;-78
2022/07/22 01:33:30;;;;;;;14.30;2.20;;;15.90;99.90;;;;;;5074720;28;20252;-76
2022/07/22 01:35:55;;;;;;;12.95;2.28;;;15.90;99.90;;;;;;5070560;28;20036;-75
2022/07/22 01:38:22;;;;;;;9.82;2.10;;;16.00;99.90;;;;;;5036138;28;20061;-77
2022/07/22 01:40:48;;;;;;;9.43;2.72;;;16.00;99.90;;;;;;5049986;28;20429;-78
2022/07/22 01:43:17;;;;;;;11.63;2.17;;;16.00;99.90;;;;;;5020596;28;20036;-76
2022/07/22 01:45:44;;;;;;;11.98;2.50;;;16.00;99.90;;;;;;5038454;28;20042;-76
2022/07/22 01:48:11;;;;;;;13.10;2.60;;;16.00;99.90;;;;;;5019632;28;20089;-79
2022/07/22 01:50:37;;;;;;;13.10;2.30;;;16.00;99.90;;;;;;5046823;28;20480;-79
2022/07/22 01:53:02;;;;;;;9.98;1.90;;;15.90;99.90;;;;;;5079382;28;20131;-78
2022/07/22 01:55:28;;;;;;;9.32;2.03;;;15.90;99.90;;;;;;5052092;28;20037;-74
2022/07/22 01:57:54;;;;;;;11.43;2.28;;;15.90;99.90;;;;;;5053020;28;20032;-76
2022/07/22 02:00:20;;;;;;;11.02;2.47;;;15.90;99.90;;;;;;5070188;28;20119;-75
2022/07/22 02:02:46;;;;;;;12.57;2.40;;;15.90;99.90;;;;;;5033073;28;20045;-76
2022/07/22 02:05:12;;;;;;;14.75;2.42;;;15.90;99.90;;;;;;5083043;28;20361;-75
2022/07/22 02:07:37;;;;;;;10.25;2.03;;;16.00;99.90;;;;;;5068241;28;20087;-78
2022/07/22 02:10:05;;;;;;;14.75;2.10;;;16.00;99.90;;;;;;5038467;28;20125;-75
2022/07/22 02:12:30;;;;;;;8.35;1.83;;;16.00;99.90;;;;;;5070561;28;20090;-76
2022/07/22 02:14:56;;;;;;;12.90;2.33;;;16.00;99.90;;;;;;5016586;28;20041;-76
2022/07/22 02:17:22;;;;;;;14.20;2.03;;;16.00;99.90;;;;;;5072756;28;20041;-75
2022/07/22 02:19:47;;;;;;;8.88;2.00;;;16.00;99.90;;;;;;5042394;28;20046;-78
2022/07/22 02:22:13;;;;;;;10.77;1.88;;;16.00;99.90;;;;;;5070107;28;20041;-79
2022/07/22 02:24:39;;;;;;;9.68;2.00;;;15.90;99.90;;;;;;5041359;28;20079;-76
2022/07/22 02:27:04;;;;;;;13.30;2.35;;;15.90;99.90;;;;;;5063463;28;20048;-74
2022/07/22 02:29:32;;;;;;;13.35;2.25;;;15.90;99.90;;;;;;5036126;28;20044;-77
2022/07/22 02:31:58;;;;;;;11.38;1.90;;;16.00;99.90;;;;;;5066963;28;20072;-78
2022/07/22 02:34:24;;;;;;;13.25;2.22;;;16.00;99.90;;;;;;5036980;28;20080;-79
2022/07/22 02:36:49;;;;;;;9.63;1.80;;;15.90;99.90;;;;;;5020771;28;20057;-76
2022/07/22 02:39:15;;;;;;;8.07;1.90;;;15.90;99.90;;;;;;5043650;28;20049;-76
2022/07/22 02:41:41;;;;;;;11.05;1.80;;;15.90;99.90;;;;;;5003014;28;20052;-78
2022/07/22 02:44:06;;;;;;;9.35;2.10;;;15.90;99.90;;;;;;5006491;28;20038;-74
2022/07/22 02:46:32;;;;;;;6.30;1.73;;;15.90;99.90;;;;;;5005047;28;20133;-76
2022/07/22 02:48:58;;;;;;;9.07;2.00;;;15.80;99.90;;;;;;5001954;28;20045;-77
2022/07/22 02:51:24;;;;;;;9.18;1.80;;;15.80;99.90;;;;;;5014765;28;20088;-77
2022/07/22 02:53:50;;;;;;;7.20;1.95;;;15.80;99.90;;;;;;5034044;28;20037;-74
2022/07/22 02:56:16;;;;;;;12.68;1.60;;;15.80;99.90;;;;;;5029837;28;20135;-76
2022/07/22 02:58:42;;;;;;;10.15;2.17;;;15.80;99.90;;;;;;5031509;28;20166;-77
2022/07/22 03:01:07;;;;;;;8.88;1.75;;;15.80;99.90;;;;;;5033561;28;20041;-75
2022/07/22 03:03:33;;;;;;;5.85;1.48;;;15.80;99.90;;;;;;4980832;28;20483;-74
2022/07/22 03:05:59;;;;;;;6.25;1.70;;;15.80;99.90;;;;;;5032303;28;20052;-76
2022/07/22 03:08:25;;;;;;;6.93;1.80;;;15.80;99.90;;;;;;5028396;28;20034;-78
2022/07/22 03:10:51;;;;;;;9.27;1.80;;;15.80;99.90;;;;;;5012610;28;20038;-76
2022/07/22 03:13:17;;;;;;;7.82;1.63;;;15.90;99.90;;;;;;4981687;28;20096;-75
2022/07/22 03:15:43;;;;;;;16.95;2.33;;;15.80;99.90;;;;;;5012304;28;20045;-74
2022/07/22 03:18:08;;;;;;;5.60;1.60;;;15.80;99.90;;;;;;5034967;28;20072;-76
2022/07/22 03:20:34;;;;;;;7.15;1.58;;;15.80;99.90;;;;;;5031103;28;20044;-74
2022/07/22 03:23:00;;;;;;;9.55;2.15;;;15.80;99.90;;;;;;4995341;28;20042;-74
2022/07/22 03:25:26;;;;;;;9.02;1.80;;;15.70;99.90;;;;;;5027170;28;20076;-76
2022/07/22 03:27:52;;;;;;;8.82;1.50;;;15.70;99.90;;;;;;5032364;28;20069;-77
2022/07/22 03:30:18;;;;;;;11.23;1.90;;;15.80;99.90;;;;;;5035786;28;20176;-73
2022/07/22 03:32:46;;;;;;;8.95;1.70;;;15.80;99.90;;;;;;5050798;28;20045;-75
2022/07/22 03:35:13;;;;;;;10.20;1.50;;;15.70;99.90;;;;;;5014444;28;20079;-75
2022/07/22 03:37:38;;;;;;;10.52;1.80;;;15.80;99.90;;;;;;5002826;28;20424;-78
2022/07/22 03:40:05;;;;;;;7.95;1.88;;;15.70;99.90;;;;;;5029363;28;20104;-74
2022/07/22 03:42:30;;;;;;;9.35;1.58;;;15.80;99.90;;;;;;5033722;28;20388;-74
2022/07/22 03:44:56;;;;;;;8.60;2.05;;;15.80;99.90;;;;;;5047472;28;20051;-74
2022/07/22 03:47:22;;;;;;;7.90;1.70;;;15.80;99.90;;;;;;5018671;28;20044;-76
2022/07/22 03:49:49;;;;;;;13.15;1.90;;;15.70;99.90;;;;;;5020865;28;20053;-74
2022/07/22 03:52:15;;;;;;;5.60;1.70;;;15.80;99.90;;;;;;5007544;28;20137;-76
2022/07/22 03:54:42;;;;;;;11.13;1.95;;;15.80;99.90;;;;;;5036446;28;20064;-76
2022/07/22 03:57:08;;;;;;;6.93;1.75;;;15.80;99.90;;;;;;5034177;28;20045;-75
2022/07/22 03:59:37;;;;;;;8.13;1.88;;;15.80;99.90;;;;;;5005535;28;21647;-76
2022/07/22 04:02:06;;;;;;;7.57;1.98;;;15.70;99.90;;;;;;5051147;28;20033;-74
2022/07/22 04:04:32;;;;;;;10.57;2.10;;;15.80;99.90;;;;;;5007717;28;20041;-75
2022/07/22 04:06:57;;;;;;;8.32;1.90;;;15.80;99.90;;;;;;5013339;28;20044;-73
2022/07/22 04:09:24;;;;;;;11.00;1.92;;;15.80;99.90;;;;;;5018165;28;20075;-77
2022/07/22 04:11:53;;;;;;;11.23;2.20;;;15.80;99.90;;;;;;5051475;28;20067;-77
2022/07/22 04:14:19;;;;;;;12.18;2.03;;;15.80;99.90;;;;;;5050669;28;20091;-78
2022/07/22 04:16:44;;;;;;;5.65;1.63;;;15.70;99.90;;;;;;5064843;28;20045;-78
2022/07/22 04:19:10;;;;;;;7.68;1.65;;;15.80;99.90;;;;;;5001669;28;20060;-78
2022/07/22 04:21:36;;;;;;;7.50;1.70;;;15.80;99.90;;;;;;5016812;28;20057;-75
2022/07/22 04:24:02;;;;;;;9.27;1.88;;;15.80;99.90;;;;;;5047202;28;20480;-77
2022/07/22 04:26:28;;;;;;;10.10;1.75;;;15.80;99.90;;;;;;5045322;28;20056;-74
2022/07/22 04:28:54;;;;;;;15.13;2.28;;;15.90;99.90;;;;;;5049438;28;20049;-72
2022/07/22 04:31:19;;;;;;;10.30;2.10;;;16.00;99.90;;;;;;5019693;28;20530;-75
2022/07/22 04:33:45;;;;;;;11.00;1.80;;;16.00;99.90;;;;;;5016824;28;20115;-72
2022/07/22 04:36:11;;;;;;;10.98;1.80;;;16.10;99.90;;;;;;5021151;28;20053;-73
2022/07/22 04:38:36;;;;;;;13.60;2.20;;;16.10;99.90;;;;;;5052236;28;20057;-73
2022/07/22 04:41:03;;;;;;;12.73;1.90;;;16.20;99.90;;;;;;5047938;28;20689;-75
2022/07/22 04:43:28;;;;;;;8.45;1.40;;;16.20;99.90;;;;;;5036939;28;20049;-74
2022/07/22 04:45:55;;;;;;;9.82;2.00;;;16.40;99.90;;;;;;5001792;28;20418;-74
2022/07/22 04:48:21;;;;;;;8.60;1.65;;;16.30;99.90;;;;;;5019986;28;20053;-78
2022/07/22 04:50:47;;;;;;;7.55;1.38;;;16.30;99.90;;;;;;5042589;28;20064;-73
2022/07/22 04:53:13;;;;;;;9.18;1.95;;;16.40;99.90;;;;;;5023258;28;20403;-72
2022/07/22 04:55:39;;;;;;;10.55;2.15;;;16.30;99.90;;;;;;5018727;28;20175;-73
2022/07/22 04:58:05;;;;;;;10.60;1.80;;;16.40;99.90;;;;;;5033358;28;20467;-71
2022/07/22 05:00:30;;;;;;;9.45;1.60;;;16.50;99.90;;;;;;5061255;28;20143;-71
2022/07/22 05:02:56;;;;;;;7.28;1.70;;;16.50;99.90;;;;;;5026553;28;20071;-73
2022/07/22 05:05:22;;;;;;;9.27;1.75;;;16.50;99.90;;;;;;5022654;28;20819;-72
2022/07/22 05:07:48;;;;;;;5.72;1.40;;;16.60;99.90;;;;;;5025736;28;20071;-73
2022/07/22 05:10:14;;;;;;;7.65;1.60;;;16.60;99.90;;;;;;5063037;28;20134;-72
2022/07/22 05:12:40;;;;;;;10.10;1.88;;;16.70;99.90;;;;;;5020100;28;20528;-73
2022/07/22 05:15:06;;;;;;;4.28;1.30;;;16.50;99.90;;;;;;5024798;28;20041;-72
2022/07/22 05:17:33;;;;;;;6.97;1.42;;;16.50;99.90;;;;;;5027039;28;20045;-72
2022/07/22 05:19:58;;;;;;;6.63;1.60;;;16.60;99.90;;;;;;5051427;28;20041;-72
2022/07/22 05:22:24;;;;;;;10.88;1.35;;;16.80;99.90;;;;;;5052962;28;20033;-72
2022/07/22 05:24:50;;;;;;;6.97;1.80;;;16.90;99.90;;;;;;5023267;28;20029;-73
2022/07/22 05:27:16;;;;;;;9.50;1.20;;;16.90;99.90;;;;;;5033702;28;20045;-72
2022/07/22 05:29:42;;;;;;;8.48;1.30;;;16.90;99.90;;;;;;5026575;28;20041;-71
2022/07/22 05:32:07;;;;;;;6.75;1.20;;;17.00;99.90;;;;;;5003776;28;20353;-72
2022/07/22 05:34:33;;;;;;;8.77;1.60;;;16.90;99.90;;;;;;5042861;28;20051;-72
2022/07/22 05:36:59;;;;;;;10.88;1.50;;;16.90;99.90;;;;;;5054377;28;20065;-72
2022/07/22 05:39:24;;;;;;;8.98;1.50;;;16.90;99.90;;;;;;5002093;28;20053;-72
2022/07/22 05:41:50;;;;;;;5.78;1.42;;;16.80;99.90;;;;;;5034537;28;20404;-73
2022/07/22 05:44:15;;;;;;;7.75;1.55;;;16.80;99.90;;;;;;5018677;28;20034;-73
2022/07/22 05:46:41;;;;;;;6.57;1.60;;;17.10;99.90;;;;;;5003118;28;20120;-75
2022/07/22 05:49:07;;;;;;;6.45;1.63;;;16.90;99.90;;;;;;5030540;28;20092;-73
2022/07/22 05:51:34;;;;;;;9.88;1.98;;;16.90;99.90;;;;;;5018860;28;20037;-72
2022/07/22 05:54:02;;;;;;;8.10;1.40;;;17.00;99.90;;;;;;5037418;28;20053;-73
2022/07/22 05:56:27;;;;;;;20.55;1.58;;;17.20;99.90;;;;;;4986463;28;20088;-73
2022/07/22 05:58:53;;;;;;;6.30;1.45;;;17.30;99.90;;;;;;5021960;28;20462;-72
2022/07/22 06:01:19;;;;;;;12.63;1.70;;;17.30;99.90;;;;;;4999741;28;20417;-70
2022/07/22 06:03:44;;;;;;;11.50;1.77;;;17.20;99.90;;;;;;5050189;28;20030;-71
2022/07/22 06:06:10;;;;;;;7.05;1.50;;;17.30;99.90;;;;;;5043471;28;20072;-72
2022/07/22 06:08:36;;;;;;;11.70;2.00;;;17.50;99.90;;;;;;5002086;28;20416;-73
2022/07/22 06:11:02;;;;;;;12.27;1.95;;;17.50;99.90;;;;;;4994637;28;20049;-72
2022/07/22 06:13:28;;;;;;;6.28;1.40;;;17.50;99.90;;;;;;5001127;28;20045;-73
2022/07/22 06:15:53;;;;;;;6.57;1.30;;;17.60;99.90;;;;;;5030059;28;20045;-73
2022/07/22 06:18:19;;;;;;;5.60;1.42;;;17.50;99.90;;;;;;4985502;28;20512;-73
2022/07/22 06:20:45;;;;;;;5.32;1.40;;;17.50;99.90;;;;;;4980036;28;20051;-74
2022/07/22 06:23:11;;;;;;;11.38;1.88;;;17.60;99.90;;;;;;4986731;28;20093;-72
2022/07/22 06:25:36;;;;;;;4.95;1.30;;;17.70;99.90;;;;;;4998754;28;20038;-73
2022/07/22 06:28:02;;;;;;;8.40;1.60;;;17.60;99.90;;;;;;5031905;28;20402;-74
2022/07/22 06:30:28;;;;;;;9.88;1.60;;;17.60;99.90;;;;;;5024953;28;20041;-71
2022/07/22 06:32:54;;;;;;;8.30;1.45;;;17.60;99.90;;;;;;4978059;28;20049;-73
2022/07/22 06:35:20;;;;;;;12.80;1.83;;;17.70;99.90;;;;;;4996985;28;20045;-73
2022/07/22 06:37:45;;;;;;;7.53;1.40;;;17.70;99.90;;;;;;5022838;28;20049;-74
2022/07/22 06:40:11;;;;;;;9.57;1.90;;;17.60;99.90;;;;;;5048896;28;20046;-76
2022/07/22 06:42:38;;;;;;;7.55;1.60;;;17.60;99.90;;;;;;5060207;28;20041;-77
2022/07/22 06:45:04;;;;;;;13.43;1.75;;;17.60;99.90;;;;;;5065752;28;20053;-74
2022/07/22 06:47:31;;;;;;;11.05;2.10;;;17.60;99.90;;;;;;5058774;28;20048;-74
2022/07/22 06:49:57;;;;;;;9.05;2.20;;;17.50;99.90;;;;;;5058368;28;20088;-75
2022/07/22 06:52:23;;;;;;;12.80;1.60;;;17.60;99.90;;;;;;5011338;28;20118;-75
2022/07/22 06:54:49;;;;;;;10.00;1.80;;;17.60;99.90;;;;;;5004788;28;20051;-74
2022/07/22 06:57:15;;;;;;;10.73;1.70;;;17.60;99.90;;;;;;5043951;28;20044;-73
2022/07/22 06:59:40;;;;;;;8.80;1.70;;;17.60;99.90;;;;;;5034385;28;20056;-75
2022/07/22 07:02:07;;;;;;;4.75;1.38;;;17.70;99.90;;;;;;5063975;28;20141;-75
2022/07/22 07:04:32;;;;;;;5.78;1.38;;;17.70;99.90;;;;;;5014326;28;20413;-74
2022/07/22 07:06:58;;;;;;;17.17;1.95;;;17.60;99.90;;;;;;5052329;28;20050;-77
2022/07/22 07:09:24;;;;;;;6.25;1.17;;;17.60;99.90;;;;;;4998299;28;20460;-77
2022/07/22 07:11:49;;;;;;;6.68;1.40;;;17.70;99.90;;;;;;5051167;28;20061;-74
2022/07/22 07:14:15;;;;;;;8.77;1.52;;;17.70;99.90;;;;;;5049151;28;20045;-79
2022/07/22 07:16:43;;;;;;;7.93;1.63;;;17.70;99.90;;;;;;5030309;28;20060;-77
2022/07/22 07:19:09;;;;;;;12.45;1.40;;;17.80;99.90;;;;;;5048542;28;20072;-75
2022/07/22 07:21:35;;;;;;;9.27;1.50;;;17.80;99.90;;;;;;5000905;28;20049;-78
2022/07/22 07:24:04;;;;;;;11.93;1.70;;;17.80;99.90;;;;;;5014367;28;20130;-79
2022/07/22 07:26:30;;;;;;;17.80;1.80;;;17.90;99.90;;;;;;5037454;28;20138;-76
2022/07/22 07:28:55;;;;;;;9.65;1.73;;;17.90;99.90;;;;;;5047629;28;20037;-78
2022/07/22 07:31:21;;;;;;;13.02;1.70;;;17.90;99.90;;;;;;5011882;28;20094;-77
2022/07/22 07:33:47;;;;;;;6.70;1.40;;;18.10;99.90;;;;;;5032763;28;20132;-77
2022/07/22 07:36:13;;;;;;;6.93;1.70;;;18.10;99.90;;;;;;5031558;28;20188;-75
2022/07/22 07:38:39;;;;;;;8.18;1.65;;;18.10;99.90;;;;;;5039912;28;20057;-74
2022/07/22 07:41:05;;;;;;;9.15;1.63;;;18.40;99.90;;;;;;5045929;28;20053;-74
2022/07/22 07:43:34;;;;;;;6.70;1.60;;;18.70;99.90;;;;;;5067251;28;20041;-74
2022/07/22 07:46:00;;;;;;;7.63;1.60;;;19.00;99.90;;;;;;5064767;28;20041;-74
2022/07/22 07:48:25;;;;;;;10.50;1.63;;;19.10;99.90;;;;;;5049743;28;20106;-80
2022/07/22 07:50:51;;;;;;;5.65;1.25;;;19.00;99.90;;;;;;5020206;28;20145;-84
2022/07/22 07:53:17;;;;;;;9.05;1.50;;;18.80;99.90;;;;;;5018111;28;20120;-78
2022/07/22 07:55:42;;;;;;;7.22;1.40;;;18.80;99.90;;;;;;5077829;28;20045;-75
2022/07/22 07:58:08;;;;;;;5.57;1.40;;;18.80;99.90;;;;;;5067457;28;20440;-74
2022/07/22 08:00:35;;;;;;;8.07;1.40;;;18.90;99.90;;;;;;5031552;28;20049;-77
2022/07/22 08:03:03;;;;;;;4.53;1.30;;;18.80;99.90;;;;;;5014024;28;20053;-73
2022/07/22 08:05:29;;;;;;;12.02;1.35;;;18.80;99.90;;;;;;5068082;28;20041;-76
2022/07/22 08:07:55;;;;;;;5.28;1.20;;;18.70;99.90;;;;;;5068233;28;20439;-77
2022/07/22 08:10:21;;;;;;;6.10;1.42;;;18.70;99.90;;;;;;5075187;28;20065;-77
2022/07/22 08:12:48;;;;;;;8.02;1.20;;;18.90;99.90;;;;;;5043921;28;20068;-76
2022/07/22 08:15:14;;;;;;;8.30;1.75;;;18.80;99.90;;;;;;5055275;28;20081;-77
2022/07/22 08:17:40;;;;;;;5.63;1.23;;;18.80;99.90;;;;;;5043566;28;20128;-75
2022/07/22 08:20:07;;;;;;;4.97;1.10;;;18.90;99.90;;;;;;5037312;28;20050;-75
2022/07/22 08:22:33;;;;;;;5.45;1.00;;;18.80;99.90;;;;;;5062784;28;20077;-76
2022/07/22 08:25:00;;;;;;;4.57;1.10;;;18.70;99.90;;;;;;5029661;28;20488;-74
2022/07/22 08:27:26;;;;;;;5.80;1.25;;;19.00;99.90;;;;;;5048823;28;20488;-77
2022/07/22 08:29:51;;;;;;;6.32;1.15;;;18.90;99.90;;;;;;5080341;28;20083;-77
2022/07/22 08:32:17;;;;;;;10.02;1.45;;;18.80;99.90;;;;;;5086978;28;20076;-76
2022/07/22 08:34:43;;;;;;;8.32;1.40;;;18.80;99.90;;;;;;5039323;28;20084;-75
2022/07/22 08:37:09;;;;;;;9.18;1.30;;;18.80;99.90;;;;;;5065516;28;20081;-78
2022/07/22 08:39:35;;;;;;;9.63;1.75;;;18.80;99.90;;;;;;5032354;28;20120;-75
2022/07/22 08:42:02;;;;;;;9.13;1.70;;;18.80;99.90;;;;;;5015814;28;20453;-74
2022/07/22 08:44:33;;;;;;;6.60;1.30;;;18.80;99.90;;;;;;5013042;28;20053;-75
2022/07/22 08:47:00;;;;;;;8.25;1.38;;;18.40;99.90;;;;;;5000088;28;20041;-77
2022/07/22 08:49:26;;;;;;;9.40;1.33;;;18.10;99.90;;;;;;4989377;28;20219;-79
2022/07/22 08:51:52;;;;;;;5.60;1.13;;;18.20;99.90;;;;;;5031577;28;20045;-77
2022/07/22 08:54:18;;;;;;;8.25;1.25;;;18.20;99.90;;;;;;5030323;28;20045;-79
2022/07/22 08:56:51;;;;;;;7.28;0.90;;;18.20;99.90;;;;;;4999255;28;20037;-76
2022/07/22 08:59:17;;;;;;;7.07;1.00;;;18.20;99.90;;;;;;4988007;28;20064;-77
2022/07/22 09:02:02;;;;;;;5.97;1.58;;;18.30;99.90;;;;;;5003447;28;20042;-75
2022/07/22 09:04:28;;;;;;;6.57;1.35;;;18.30;99.90;;;;;;5034577;28;20132;-76
2022/07/22 09:06:54;;;;;;;6.07;1.50;;;18.20;99.90;;;;;;4989071;28;20046;-75
2022/07/22 09:09:32;;;;;;;8.13;1.08;;;18.30;99.90;;;;;;5006777;28;20385;-76
2022/07/22 09:12:11;;;;;;;6.90;0.95;;;18.30;99.90;;;;;;4986884;28;20077;-74
2022/07/22 09:14:47;;;;;;;8.98;1.40;;;18.30;99.90;;;;;;5006196;28;20466;-76
2022/07/22 09:17:27;;;;;;;6.43;1.08;;;18.40;99.90;;;;;;5005998;28;20106;-75
2022/07/22 09:19:53;;;;;;;9.98;1.52;;;18.40;99.90;;;;;;5021512;28;20046;-74
2022/07/22 09:22:42;;;;;;;6.57;1.10;;;18.40;99.90;;;;;;5016035;28;20052;-76
2022/07/22 09:25:37;;;;;;;4.35;1.25;;;18.60;99.90;;;;;;5020411;28;20080;-77
2022/07/22 09:28:06;;;;;;;4.07;0.85;;;18.70;99.90;;;;;;5025439;28;20049;-74
2022/07/22 09:30:40;;;;;;;4.43;0.88;;;18.90;99.90;;;;;;5035205;28;20046;-74
2022/07/22 09:33:08;;;;;;;5.85;1.23;;;19.10;99.90;;;;;;5035542;28;20060;-75
2022/07/22 09:35:33;;;;;;;5.53;1.15;;;18.90;99.90;;;;;;5038593;28;20068;-73
2022/07/22 09:38:06;;;;;;;7.88;1.17;;;19.20;99.90;;;;;;5027133;28;20518;-75
2022/07/22 09:40:43;;;;;;;4.35;0.90;;;19.30;99.90;;;;;;5001377;28;20042;-76
2022/07/22 09:43:14;;;;;;;8.65;1.48;;;19.00;99.90;;;;;;5021273;28;20080;-75
2022/07/22 09:45:53;;;;;;;11.10;1.73;;;18.90;99.90;;;;;;5047858;28;20442;-74
2022/07/22 09:48:21;;;;;;;3.40;0.95;;;18.70;99.90;;;;;;5033150;28;20039;-73
2022/07/22 09:50:48;;;;;;;6.80;1.30;;;19.10;99.90;;;;;;5069146;28;20053;-74
2022/07/22 09:53:15;;;;;;;4.88;1.13;;;19.10;99.90;;;;;;5029415;28;20042;-75
2022/07/22 09:55:41;;;;;;;5.68;1.00;;;19.20;99.90;;;;;;5066313;28;20079;-75
2022/07/22 09:58:07;;;;;;;11.00;0.85;;;19.30;99.90;;;;;;5051228;28;20045;-73
2022/07/22 10:00:34;;;;;;;4.78;1.02;;;19.70;99.90;;;;;;5007514;28;20063;-74
2022/07/22 10:03:04;;;;;;;3.28;0.90;;;19.70;99.90;;;;;;5030027;28;20042;-72
2022/07/22 10:05:35;;;;;;;4.75;0.70;;;19.70;99.90;;;;;;5015369;28;20136;-73
2022/07/22 10:08:01;;;;;;;2.67;0.80;;;19.70;99.90;;;;;;5031507;28;20111;-75
2022/07/22 10:10:29;;;;;;;2.85;0.70;;;19.90;99.90;;;;;;5031417;28;20384;-74
2022/07/22 10:12:57;;;;;;;6.70;0.90;;;20.00;99.90;;;;;;5032810;28;20108;-75
2022/07/22 10:15:24;;;;;;;5.88;1.20;;;20.30;99.90;;;;;;5017555;28;20061;-76
2022/07/22 10:17:53;;;;;;;2.97;0.82;;;20.50;99.90;;;;;;5031480;28;20037;-74
2022/07/22 10:20:21;;;;;;;4.38;1.00;;;20.50;99.90;;;;;;5032115;28;20158;-75
2022/07/22 10:22:49;;;;;;;2.50;0.77;;;20.70;99.90;;;;;;5052511;28;20047;-75
2022/07/22 10:25:15;;;;;;;3.05;0.95;;;20.60;99.90;;;;;;5022497;28;20077;-76
2022/07/22 10:27:52;;;;;;;3.13;0.70;;;20.60;99.90;;;;;;4997600;28;20076;-75
2022/07/22 10:30:23;;;;;;;6.13;0.88;;;20.40;99.90;;;;;;5053091;28;20033;-76
2022/07/22 10:33:12;;;;;;;2.55;0.70;;;20.20;99.90;;;;;;5031112;28;20044;-76
2022/07/22 10:35:44;;;;;;;4.60;0.80;;;20.30;99.90;;;;;;5041465;28;20079;-77
2022/07/22 10:38:13;;;;;;;3.10;0.82;;;20.50;99.90;;;;;;5056411;28;20132;-75
2022/07/22 10:40:55;;;;;;;3.30;0.80;;;20.30;99.90;;;;;;5014033;28;20099;-76
2022/07/22 10:43:42;;;;;;;7.63;1.00;;;20.40;99.90;;;;;;4978918;28;20057;-77
2022/07/22 10:46:09;;;;;;;5.50;0.73;;;20.10;99.90;;;;;;4997475;28;20064;-76
2022/07/22 10:48:38;;;;;;;2.38;0.77;;;20.00;99.90;;;;;;5032429;28;20457;-76
2022/07/22 10:51:09;;;;;;;7.22;1.08;;;20.10;99.90;;;;;;5051470;28;20073;-76
2022/07/22 10:53:58;;;;;;;7.43;0.85;;;20.20;99.90;;;;;;5036037;28;20069;-75
2022/07/22 10:56:35;;;;;;;3.70;0.88;;;20.40;99.90;;;;;;5002397;28;20101;-75
2022/07/22 10:59:09;;;;;;;4.00;0.90;;;20.30;99.90;;;;;;5000690;28;20110;-76
2022/07/22 11:01:35;;;;;;;5.68;0.80;;;20.10;99.90;;;;;;5019761;28;20144;-75
2022/07/22 11:04:23;;;;;;;4.43;0.80;;;20.30;99.90;;;;;;5030041;28;20049;-75
2022/07/22 11:06:51;;;;;;;4.03;0.60;;;20.10;99.90;;;;;;4994474;28;20211;-75
2022/07/22 11:09:19;;;;;;;3.42;0.70;;;20.10;99.90;;;;;;4998177;28;20049;-75
2022/07/22 11:11:51;;;;;;;5.95;0.95;;;20.40;99.90;;;;;;5009122;28;20496;-76
2022/07/22 11:14:32;;;;;;;3.13;0.80;;;20.00;99.90;;;;;;5090069;27;20463;-76
2022/07/22 11:17:07;;;;;;;2.75;0.80;;;20.00;99.90;;;;;;5089802;28;20134;-74
2022/07/22 11:19:34;;;;;;;5.65;0.70;;;20.00;99.90;;;;;;5106571;27;20043;-74
2022/07/22 11:22:07;;;;;;;2.00;0.50;;;20.10;99.90;;;;;;5069064;28;20045;-75
2022/07/22 11:24:34;;;;;;;5.10;0.87;;;20.10;99.90;;;;;;5075907;28;20130;-75
2022/07/22 11:27:01;;;;;;;3.42;0.70;;;20.10;99.90;;;;;;5080389;28;20526;-75
2022/07/22 11:29:35;;;;;;;6.93;1.05;;;20.00;99.90;;;;;;5111015;27;20047;-74
2022/07/22 11:32:05;;;;;;;2.45;0.57;;;20.30;99.90;;;;;;5081547;28;20048;-75
2022/07/22 11:34:31;;;;;;;2.47;0.60;;;20.60;99.90;;;;;;5081850;28;20123;-74
2022/07/22 11:36:58;;;;;;;3.17;0.57;;;20.60;99.90;;;;;;5060684;28;20127;-76
2022/07/22 11:39:26;;;;;;;4.13;0.50;;;20.80;99.90;;;;;;5094031;28;20048;-74
2022/07/22 11:41:53;;;;;;;10.00;0.65;;;21.00;99.90;;;;;;5076298;28;20029;-74
2022/07/22 11:44:20;;;;;;;4.15;0.73;;;21.00;99.90;;;;;;5107565;27;20052;-74
2022/07/22 11:46:46;;;;;;;3.10;0.60;;;21.10;99.90;;;;;;5063601;28;20052;-74
2022/07/22 11:49:18;;;;;;;1.40;0.30;;;21.50;99.90;;;;;;5067423;28;20040;-74
2022/07/22 11:51:44;;;;;;;4.97;0.50;;;21.50;99.90;;;;;;5076206;28;20032;-74
2022/07/22 11:54:09;;;;;;;2.08;0.50;;;21.50;99.90;;;;;;5058610;28;20044;-74
2022/07/22 11:56:36;;;;;;;1.92;0.47;;;21.30;99.90;;;;;;5062202;28;20051;-75
2022/07/22 11:59:04;;;;;;;3.25;0.60;;;21.20;99.90;;;;;;5081960;28;20070;-73
2022/07/22 12:01:33;;;;;;;4.93;0.80;;;21.00;99.90;;;;;;5079167;28;20035;-76
2022/07/22 12:04:03;;;;;;;1.85;0.65;;;21.10;99.90;;;;;;5064694;28;20131;-74
2022/07/22 12:06:33;;;;;;;3.55;0.60;;;21.10;99.90;;;;;;5064176;28;20646;-74
2022/07/22 12:09:19;;;;;;;2.05;0.47;;;21.00;99.90;;;;;;5063272;28;20040;-75
2022/07/22 12:11:52;;;;;;;4.65;0.60;;;21.50;99.90;;;;;;5073745;28;20471;-73
2022/07/22 12:14:21;;;;;;;2.47;0.77;;;21.40;99.90;;;;;;5077315;28;20161;-74
2022/07/22 12:17:04;;;;;;;9.85;0.80;;;21.30;99.90;;;;;;5078595;28;20101;-75
2022/07/22 12:19:31;;;;;;;2.80;0.65;;;21.60;99.90;;;;;;5083403;28;20034;-74
2022/07/22 12:22:05;;;;;;;4.07;0.57;;;21.60;99.90;;;;;;5078138;28;20075;-74
2022/07/22 12:24:39;;;;;;;3.35;0.60;;;21.60;99.90;;;;;;5070145;28;20963;-74
2022/07/22 12:27:12;;;;;;;8.45;0.57;;;21.90;99.90;;;;;;5039713;28;20140;-75
2022/07/22 12:29:38;;;;;;;2.15;0.43;;;21.90;99.90;;;;;;5046764;28;20036;-77
2022/07/22 12:32:16;;;;;;;3.47;0.70;;;21.90;99.90;;;;;;5058465;28;20052;-75
2022/07/22 12:34:45;;;;;;;3.97;0.70;;;21.90;99.90;;;;;;5062649;28;20048;-73
2022/07/22 12:37:22;;;;;;;2.15;0.60;;;21.90;99.90;;;;;;5042324;28;20065;-75
2022/07/22 12:39:59;;;;;;;1.23;0.50;;;21.90;99.90;;;;;;5094814;28;20083;-75
2022/07/22 12:42:28;;;;;;;2.63;0.40;;;21.70;99.90;;;;;;5042997;28;20049;-74
2022/07/22 12:45:06;;;;;;;4.22;0.60;;;21.60;99.90;;;;;;5062986;28;20048;-75